Decoded Metar for GCLA (LA PALMA in SPAIN) (IATA:SPC) | Meteo·Mobile Aviation Weather
aviador You're here:

GCLA Decoded Metar

LA PALMA in SPAIN
Report Time2019-01-23 07:30:00
UTC Time2019-01-23 07:55:21
Flight Rules vfr VFR
Wind330° at 10 kt
W.Decomp.*RWY 01: 8.4 kt HW 5.4 kt LCW
W.Rank330° ranks 7
Current wind is above 330° avg. (8.1)
Visibility9999 m
Phenomena:N/A
Clouds:Few 030 Hf
Broken 043 Hf
Expected CloudBase > 1,600 ft AGL from Temp-Dew spread
Ceiling4,300 ft
Temp15°C (ISA 0)
Dew Point11°C (77% RH)
AAT11.7°C
QNH1026 hPa
Density Alt-135 ft
Elevation102 ft
Report Wrong Elevation
Raw Report
GCLA 230730Z 33010KT 280V030 9999 FEW030 BKN043 15/11 Q1026=

Extra information for GCLA:More info

Metar Taf Metar & Taf Last 4 Metars F.Rules Stats Wind Profile Meteogram Temp Stats Airport Information Weather charts Add Link Nearby VenuesMetar ALERT Operation Metar Decoded Social comments